Weather observations for the past three days for
Laughlin Air Force Base Auxiliary Airfield
| Date | Time (cdt) | Wind (kph) | Vis. (km) | Weather | Sky Cond. | Temperature (ºC) | Relative Humidity | Wind Chill (°C) | Heat Index (°C) | Pressure | Precipitation (cm) | ||||||
|---|---|---|---|---|---|---|---|---|---|---|---|---|---|---|---|---|---|
| Air | Dwpt | 6 hour | altimeter (cm) | sea level (mb) | 1 hr | 3 hr | 6 hr | ||||||||||
| Max. | Min. | ||||||||||||||||
| 07 | 16:55 | N 11 | 3.62 | Thunderstorm Light Rain in Vicinity | OVC004 | 16.7 | 15.6 | 93% | 76.07 | 1013.5 | 0.08 | ||||||
| 07 | 15:55 | N 13 | 12.87 | Light Rain | OVC005 | 17.3 | 16 | 92% | 76.05 | 1013.1 | 0.05 | 0.05 | |||||
| 07 | 14:55 | Calm | 14.48 | Overcast | BKN005 OVC012 | 17.2 | 15.5 | 90% | 76.15 | 1014.5 | |||||||
| 07 | 13:55 | N 9 | 16.09 | Overcast | OVC009 | 17.9 | 15 | 83% | 76.17 | 1014.8 | |||||||
| 07 | 12:55 | NE 11 | 16.09 | Overcast | OVC008 | 17.5 | 14.9 | 20.9 | 16.2 | 85% | 76.17 | 1014.8 | |||||
| 07 | 11:55 | NE 17 | 16.09 | Overcast | BKN007 OVC027 | 16.9 | 15.2 | 90% | 76.17 | 1014.8 | |||||||
| 07 | 10:55 | N 17 | 12.87 | Light Rain Fog/Mist | OVC005 | 16.3 | 15 | 92% | 76.2 | 1015.1 | |||||||
| 07 | 09:55 | N 22 | 12.87 | Overcast | OVC009 | 17.2 | 15.7 | 91% | 76.12 | 1014.0 | |||||||
| 07 | 08:55 | N 20 | 8.05 | Fog/Mist | OVC008 | 19.6 | 17.5 | 88% | 76.1 | 1013.5 | |||||||
| 07 | 07:55 | Calm | 16.09 | Overcast | OVC011 | 20.7 | 16.9 | 79% | 76.05 | 1012.7 | |||||||
| 07 | 06:55 | E 7 | 16.09 | Thunderstorm Light Rain | OVC014 | 20.7 | 16.5 | 22.4 | 20.7 | 77% | 75.97 | 1011.6 | |||||
| 07 | 05:55 | E 9 | 16.09 | Overcast | OVC016 | 20.9 | 16.1 | 74% | 75.95 | 1011.3 | |||||||
| 07 | 04:55 | NE 11 | 16.09 | Overcast | OVC014 | 21.1 | 16.1 | 73% | 75.92 | 1011.0 | |||||||
| 07 | 03:55 | E 9 | 16.09 | Overcast | OVC014 | 21.2 | 16.6 | 75% | 75.92 | 1011.0 | |||||||
| 07 | 02:55 | E 11 | 16.09 | Mostly Cloudy | BKN020 | 21.2 | 16.6 | 75% | 75.95 | 1011.4 | |||||||
| 07 | 01:55 | NE 6 | 16.09 | Mostly Cloudy | FEW032 BKN200 | 21.4 | 16.6 | 74% | 75.95 | 1011.4 | |||||||
| 07 | 00:55 | E 11 | 16.09 | Partly Cloudy | FEW037 SCT220 | 22.5 | 16.7 | 30.7 | 22.3 | 70% | 75.92 | 1011.0 | |||||
| 06 | 23:55 | E 13 | 16.09 | A Few Clouds | FEW049 | 22.7 | 17.6 | 73% | 75.92 | 1011.0 | |||||||
| 06 | 22:55 | NE 7 | 16.09 | Partly Cloudy | SCT190 | 23.1 | 18.2 | 74% | 75.79 | 1009.4 | |||||||
| 06 | 21:55 | NE 11 | 16.09 | Fair | CLR | 25 | 17.7 | 64% | 26 | 75.74 | 1008.6 | ||||||
| 06 | 20:55 | E 9 | 16.09 | Mostly Cloudy | BKN210 | 27 | 17.7 | 57% | 28 | 75.72 | 1008.2 | ||||||
| 06 | 19:55 | E 19 | 16.09 | Partly Cloudy | SCT210 | 29.2 | 16 | 45% | 29 | 75.64 | 1007.2 | ||||||
| 06 | 18:55 | NE 19 | 16.09 | Fair | CLR | 30.8 | 14 | 31.4 | 28.6 | 36% | 30 | 75.59 | 1006.4 | ||||
| 06 | 17:55 | NE 19 | 16.09 | Fair | CLR | 31 | 15.4 | 39% | 31 | 75.54 | 1005.7 | ||||||
| 06 | 16:55 | NE 24 | 16.09 | A Few Clouds | FEW210 | 31.3 | 14.8 | 37% | 31 | 75.54 | 1005.7 | ||||||
| 06 | 15:55 | N 15 | 16.09 | Partly Cloudy | FEW180 SCT220 | 30.3 | 17 | 45% | 31 | 75.59 | 1006.4 | ||||||
| 06 | 14:55 | N 20 | 16.09 | A Few Clouds | FEW200 | 29.5 | 20.3 | 58% | 32 | 75.62 | 1006.7 | ||||||
| 06 | 13:55 | N 15 | 16.09 | Partly Cloudy | FEW110 FEW140 SCT190 | 29.4 | 20.8 | 60% | 32 | 75.67 | 1007.4 | ||||||
| 06 | 12:55 | N 20 | 16.09 | Partly Cloudy | SCT016 | 28.7 | 20.9 | 28.7 | 24.5 | 63% | 31 | 75.72 | 1008.2 | ||||
| 06 | 11:55 | N 22 G 30 | 16.09 | Overcast | BKN011 OVC019 | 26.6 | 22.6 | 79% | 29 | 75.74 | 1008.6 | ||||||
| 06 | 10:55 | E 6 | 11.27 | Overcast | OVC007 | 25.1 | 23.1 | 89% | 26 | 75.69 | 1008.0 | ||||||
| 06 | 09:55 | E 11 | 16.09 | Overcast | OVC007 | 25.1 | 22.6 | 86% | 26 | 75.64 | 1007.2 | ||||||
| 06 | 08:55 | SE 19 | 12.87 | Overcast | SCT007 OVC019 | 24.9 | 22.6 | 87% | 26 | 75.57 | 1006.1 | ||||||
| 06 | 07:55 | SE 15 | 16.09 | Mostly Cloudy | BKN016 | 24.7 | 22.4 | 87% | 25 | 75.54 | 1005.7 | ||||||
| 06 | 06:55 | SE 17 | 16.09 | Overcast | BKN009 OVC020 | 24.5 | 22.2 | 27 | 24.5 | 87% | 25 | 75.49 | 1005.0 | ||||
| 06 | 05:55 | SE 15 | 16.09 | Overcast | OVC010 | 24.8 | 22.3 | 86% | 25 | 75.49 | 1005.0 | ||||||
| 06 | 04:55 | E 17 | 16.09 | Overcast | OVC012 | 25 | 22.3 | 85% | 26 | 75.46 | 1004.7 | ||||||
| 06 | 03:55 | E 24 | 16.09 | Light Rain | OVC013 | 25.4 | 22.5 | 84% | 27 | 75.44 | 1004.4 | ||||||
| 06 | 02:55 | E 22 | 16.09 | Fair | CLR | 25.4 | 22.3 | 83% | 27 | 75.41 | 1004.0 | ||||||
| 06 | 01:55 | E 24 | 16.09 | Partly Cloudy | SCT095 | 26.2 | 22.2 | 79% | 28 | 75.44 | 1004.4 | ||||||
| 06 | 00:55 | E 11 | 16.09 | Overcast | OVC100 | 25.5 | 21.3 | 32.2 | 24.6 | 78% | 27 | 75.41 | 1004.1 | ||||
| 05 | 23:55 | NE 11 | 16.09 | Fair | CLR | 24.9 | 20.8 | 78% | 26 | 75.41 | 1004.1 | ||||||
| 05 | 22:55 | NE 9 | 16.09 | Fair | CLR | 25.7 | 20.7 | 74% | 27 | 75.39 | 1003.8 | ||||||
| 05 | 21:55 | E 7 | 16.09 | Fair | CLR | 26.8 | 20.1 | 67% | 28 | 75.34 | 1003.2 | ||||||
| 05 | 20:55 | E 11 | 16.09 | Fair | CLR | 28.3 | 20 | 61% | 30 | 75.29 | 1002.5 | ||||||
| 05 | 19:55 | E 13 | 16.09 | Fair | CLR | 30.9 | 19.2 | 50% | 32 | 75.23 | 1001.7 | ||||||
| 05 | 18:55 | E 11 | 16.09 | Fair | CLR | 31.8 | 18.4 | 32.5 | 28.4 | 45% | 33 | 75.23 | 1001.7 | ||||
| 05 | 17:55 | SE 9 | 16.09 | Fair | CLR | 32.5 | 19 | 45% | 34 | 75.26 | 1002.0 | ||||||
| 05 | 16:55 | NE 11 | 16.09 | Fair | CLR | 31.6 | 19.2 | 48% | 33 | 75.29 | 1002.4 | ||||||
| 05 | 15:55 | NE 9 | 16.09 | A Few Clouds | FEW190 | 31.2 | 19.2 | 49% | 33 | 75.34 | 1003.1 | ||||||
| 05 | 14:55 | N 6 | 16.09 | A Few Clouds | FEW200 | 30.8 | 18.5 | 48% | 32 | 75.39 | 1003.8 | ||||||
| 05 | 13:55 | NE 7 | 16.09 | Partly Cloudy | FEW180 SCT200 | 29.8 | 19.5 | 54% | 31 | 75.44 | 1004.4 | ||||||
| 05 | 12:55 | S 6 | 16.09 | A Few Clouds | FEW170 | 28.3 | 19.2 | 28.4 | 21.8 | 58% | 30 | 75.49 | 1005.2 | ||||
| 05 | 11:55 | Calm | 16.09 | A Few Clouds | FEW023 | 26.4 | 19.5 | 66% | 28 | 75.54 | 1005.9 | ||||||
| 05 | 10:55 | SE 9 | 16.09 | Mostly Cloudy | BKN018 | 25.6 | 19.5 | 69% | 27 | 75.57 | 1006.3 | ||||||
| 05 | 09:55 | SE 11 | 16.09 | Overcast | OVC012 | 23.8 | 19.5 | 77% | 75.54 | 1005.9 | |||||||
| 05 | 08:55 | E 17 | 16.09 | Overcast | OVC010 | 22.6 | 19.5 | 83% | 75.51 | 1005.6 | |||||||
| 05 | 07:55 | SE 17 | 16.09 | Overcast | OVC010 | 21.9 | 19.4 | 86% | 75.49 | 1005.2 | |||||||
| 05 | 06:55 | SE 17 | 16.09 | Overcast | OVC010 | 21.9 | 19.2 | 23.3 | 21.4 | 85% | 75.44 | 1004.5 | |||||
| 05 | 05:55 | SE 15 | 16.09 | Overcast | OVC013 | 21.7 | 18.9 | 84% | 75.41 | 1004.1 | |||||||
| 05 | 04:55 | SE 15 | 16.09 | Fair | CLR | 21.4 | 18.6 | 84% | 75.41 | 1004.1 | |||||||
| 05 | 03:55 | SE 13 | 16.09 | Fair | CLR | 21.9 | 18.5 | 81% | 75.44 | 1004.5 | |||||||
| 05 | 02:55 | E 13 | 16.09 | Fair | CLR | 22.1 | 18.1 | 78% | 75.46 | 1004.8 | |||||||
| 05 | 01:55 | SE 15 | 16.09 | Fair | CLR | 23 | 17.7 | 72% | 75.51 | 1005.5 | |||||||
| 05 | 00:55 | SE 11 | 16.09 | Fair | CLR | 23.2 | 17.6 | 29.8 | 23.1 | 71% | 75.57 | 1006.3 | |||||
| 04 | 23:55 | SE 15 | 16.09 | Fair | CLR | 23.6 | 17.3 | 68% | 75.57 | 1006.3 | |||||||
| 04 | 22:55 | SE 15 | 16.09 | Fair | CLR | 24.6 | 17.3 | 64% | 26 | 75.59 | 0.0 | ||||||
| 04 | 21:55 | SE 17 | 16.09 | Fair | CLR | 25.5 | 17.1 | 60% | 26 | 75.54 | 1006.0 | ||||||
| 04 | 20:55 | SE 20 | 16.09 | Fair | CLR | 26.9 | 16.8 | 54% | 28 | 75.51 | 1005.7 | ||||||
| 04 | 19:55 | SE 26 | 16.09 | Fair | CLR | 28.3 | 16.2 | 48% | 29 | 75.51 | 1005.7 | ||||||
| 04 | 18:55 | SE 22 | 16.09 | Fair | CLR | 29.7 | 16.1 | 31 | 26.7 | 44% | 30 | 75.51 | 1005.7 | ||||
| 04 | 17:55 | S 24 | 16.09 | Fair | CLR | 30.4 | 16.4 | 43% | 31 | 75.49 | 1005.4 | ||||||
| Date | Time (cdt) | Wind (kph) | Vis. (km) | Weather | Sky Cond. | Air | Dwpt | Max. | Min. | Relative Humidity | Wind Chill (°C) | Heat Index (°C) | altimeter (cm) | sea level (mb) | 1 hr | 3 hr | 6 hr |
| 6 hour | |||||||||||||||||
| Temperature (ºC) | Pressure | Precipitation (cm) | |||||||||||||||